Mesa Verde National Park, Colorado
Current Conditions -  °F | °C
As of 4:53 PM on Wednesday 26 Nov 2014 (Local Time) from KCEZ Reporting Station
Clear Clear  
Wind Chill: 44°   Ceiling: Unl
Heat Index: 47°   Visibility: 10mi
Dew Point: 21°   Wind: 6mph
Humidity: 36%   Direction: 270°W
Pressure: 30.38"   Gusts: NA
Location:  37.1877°N, 108.492°W
Report Text: KCEZ 262353Z AUTO 27005KT 10SM CLR 08/M06 A3038 RMK AO2 SLP289 T00831061 10144 20083 53010
Loading
Personal Weather Stations






























Interactive Weather Map New forecast layout! Learn more

10-Day Weather Forecast

Advertisements
Track Severe Weather on mobile